If you wish to contribute or participate in the discussions about articles you are invited to join SKYbrary as a registered user

 Actions

Beale Air Force Base

From SKYbrary Wiki

KBAB
Airport
ICAO: KBAB
Summary
Name Beale Air Force Base
Region North America
Territory United States US.gif
Location Marysville, California
Serving
Coordinates 39° 8' 47.37" N, 121° 26' 5.15" W
Runways
Designator Length Width Surface ROPS
15/33 3658 m12,001.312 ft
91 m298.556 ft
CON yes/yes


METAR
Observation KBAB 211458Z AUTO 07003KT 10SM FEW080 07/05 A3008 RMK AO2 SLP189 T00680053 52008 $
Station Marysville, Beale Air Force Base
Date/Time 21 March 2019 14:58:00
Wind direction 70°
Wind speed 03 kts
Lowest cloud amount few clouds
Temperature 6.8°C
Dew point 5.3°C
Humidity 90%
QNH hPa
Weather condition n/a

Beale Air Force Base

ICAO: KBAB IATA: BAB

Description

Beale Air Force Base (AFB) is a United States Air Force base located approximately 20 km10.799 nm
20,000 m
65,616.798 ft
east of Yuba City, California.

Climatology

Dry-summer subtropical ”Mediterranean" climate (Köppen climate classification Csb) - characterized by warm, dry summers and mild winters.

Maps

Terrain

Loading map...

Airport Layout

Loading map...


Accidents & Serious Incidents at or in vicinity of KBAB

None on SKYbrary